SUH weather

Sur Airport
Sur, Ash Sharqlyah Governorate, Oman

Public forecast

Using degrees Celsius for public forecast. Weather courtesy of forecast.io.

METAR (pilot weather report)

Closest report is Muscat International Airport, 91.9 nm (170.1 km) NW. Retrieved 2019/04/25 08:50 UTC (32 minutes ago):

OOMS 250850Z 33014KT CAVOK 30/13 Q1012 NOSIG

TAF (pilot weather forecast)

Closest forecast is Muscat International Airport, 91.9 nm (170.1 km) NW. Retrieved 2019/04/25 06:00 UTC (3 hours ago):

TAF OOMS 250500Z 2506/2612 33015KT 9000 NSC BECMG 2518/2520 24005KT BECMG 2606/2608 34012KT